sensor_id;sensor_type;location;lat;lon;timestamp;P1;durP1;ratioP1;P2;durP2;ratioP2
11431;SDS011;5772;50.940;6.782;2022-08-19T00:01:37;45.67;;;43.57;;
11431;SDS011;5772;50.940;6.782;2022-08-19T00:04:05;43.07;;;41.07;;
11431;SDS011;5772;50.940;6.782;2022-08-19T00:06:31;43.30;;;41.30;;
11431;SDS011;5772;50.940;6.782;2022-08-19T00:08:59;46.90;;;44.40;;
11431;SDS011;5772;50.940;6.782;2022-08-19T00:11:24;49.30;;;46.90;;
11431;SDS011;5772;50.940;6.782;2022-08-19T00:13:49;42.33;;;40.33;;
11431;SDS011;5772;50.940;6.782;2022-08-19T00:16:17;44.90;;;42.63;;
11431;SDS011;5772;50.940;6.782;2022-08-19T00:18:42;49.37;;;47.17;;
11431;SDS011;5772;50.940;6.782;2022-08-19T00:21:08;54.93;;;52.23;;
11431;SDS011;5772;50.940;6.782;2022-08-19T00:23:33;57.83;;;54.83;;
11431;SDS011;5772;50.940;6.782;2022-08-19T00:25:58;57.97;;;55.27;;
11431;SDS011;5772;50.940;6.782;2022-08-19T00:28:24;58.23;;;55.43;;
11431;SDS011;5772;50.940;6.782;2022-08-19T00:30:49;54.90;;;52.07;;
11431;SDS011;5772;50.940;6.782;2022-08-19T00:33:16;55.57;;;52.97;;
11431;SDS011;5772;50.940;6.782;2022-08-19T00:35:41;64.70;;;61.77;;
11431;SDS011;5772;50.940;6.782;2022-08-19T00:38:07;64.20;;;60.97;;
11431;SDS011;5772;50.940;6.782;2022-08-19T00:40:32;63.37;;;60.33;;
11431;SDS011;5772;50.940;6.782;2022-08-19T00:42:58;63.70;;;60.80;;
11431;SDS011;5772;50.940;6.782;2022-08-19T00:45:28;57.83;;;54.80;;
11431;SDS011;5772;50.940;6.782;2022-08-19T00:47:54;58.40;;;55.57;;
11431;SDS011;5772;50.940;6.782;2022-08-19T00:50:20;67.17;;;64.00;;
11431;SDS011;5772;50.940;6.782;2022-08-19T00:52:47;62.27;;;59.00;;
11431;SDS011;5772;50.940;6.782;2022-08-19T00:55:15;63.07;;;59.87;;
11431;SDS011;5772;50.940;6.782;2022-08-19T00:57:43;55.87;;;53.00;;
11431;SDS011;5772;50.940;6.782;2022-08-19T01:00:13;53.90;;;50.90;;
11431;SDS011;5772;50.940;6.782;2022-08-19T01:02:40;57.93;;;55.00;;
11431;SDS011;5772;50.940;6.782;2022-08-19T01:05:07;48.00;;;45.53;;
11431;SDS011;5772;50.940;6.782;2022-08-19T01:07:36;50.53;;;47.97;;
11431;SDS011;5772;50.940;6.782;2022-08-19T01:10:03;60.83;;;57.63;;
11431;SDS011;5772;50.940;6.782;2022-08-19T01:12:29;47.57;;;44.97;;
11431;SDS011;5772;50.940;6.782;2022-08-19T01:14:55;57.20;;;53.97;;
11431;SDS011;5772;50.940;6.782;2022-08-19T01:17:21;43.93;;;41.53;;
11431;SDS011;5772;50.940;6.782;2022-08-19T01:19:46;51.37;;;48.87;;
11431;SDS011;5772;50.940;6.782;2022-08-19T01:22:14;50.57;;;47.50;;
11431;SDS011;5772;50.940;6.782;2022-08-19T01:24:43;50.07;;;47.53;;
11431;SDS011;5772;50.940;6.782;2022-08-19T01:27:08;49.60;;;46.67;;
11431;SDS011;5772;50.940;6.782;2022-08-19T01:29:34;52.83;;;50.13;;
11431;SDS011;5772;50.940;6.782;2022-08-19T01:32:02;68.50;;;65.33;;
11431;SDS011;5772;50.940;6.782;2022-08-19T01:34:28;42.20;;;39.83;;
11431;SDS011;5772;50.940;6.782;2022-08-19T01:36:53;54.07;;;51.03;;
11431;SDS011;5772;50.940;6.782;2022-08-19T01:39:20;45.93;;;43.47;;
11431;SDS011;5772;50.940;6.782;2022-08-19T01:41:48;48.70;;;45.93;;
11431;SDS011;5772;50.940;6.782;2022-08-19T01:44:14;52.20;;;49.50;;
11431;SDS011;5772;50.940;6.782;2022-08-19T01:46:40;47.80;;;45.37;;
11431;SDS011;5772;50.940;6.782;2022-08-19T01:49:06;57.47;;;54.60;;
11431;SDS011;5772;50.940;6.782;2022-08-19T01:51:31;67.17;;;63.30;;
11431;SDS011;5772;50.940;6.782;2022-08-19T01:53:57;75.17;;;71.47;;
11431;SDS011;5772;50.940;6.782;2022-08-19T01:56:23;86.23;;;82.23;;
11431;SDS011;5772;50.940;6.782;2022-08-19T01:58:52;68.67;;;64.53;;
11431;SDS011;5772;50.940;6.782;2022-08-19T02:01:20;53.20;;;50.30;;
11431;SDS011;5772;50.940;6.782;2022-08-19T02:03:46;65.67;;;62.33;;
11431;SDS011;5772;50.940;6.782;2022-08-19T02:06:11;69.63;;;65.90;;
11431;SDS011;5772;50.940;6.782;2022-08-19T02:08:37;81.00;;;76.70;;
11431;SDS011;5772;50.940;6.782;2022-08-19T02:11:03;70.60;;;67.00;;
11431;SDS011;5772;50.940;6.782;2022-08-19T02:13:29;84.23;;;79.93;;
11431;SDS011;5772;50.940;6.782;2022-08-19T02:15:56;70.53;;;66.87;;
11431;SDS011;5772;50.940;6.782;2022-08-19T02:18:21;78.03;;;74.17;;
11431;SDS011;5772;50.940;6.782;2022-08-19T02:20:47;90.00;;;85.70;;
11431;SDS011;5772;50.940;6.782;2022-08-19T02:23:13;99.87;;;95.10;;
11431;SDS011;5772;50.940;6.782;2022-08-19T02:25:39;101.10;;;96.17;;
11431;SDS011;5772;50.940;6.782;2022-08-19T02:28:06;94.10;;;89.60;;
11431;SDS011;5772;50.940;6.782;2022-08-19T02:30:31;93.47;;;88.87;;
11431;SDS011;5772;50.940;6.782;2022-08-19T02:32:58;85.57;;;81.40;;
11431;SDS011;5772;50.940;6.782;2022-08-19T02:35:23;88.60;;;84.13;;
11431;SDS011;5772;50.940;6.782;2022-08-19T02:37:49;90.00;;;85.40;;
11431;SDS011;5772;50.940;6.782;2022-08-19T02:40:14;88.80;;;84.27;;
11431;SDS011;5772;50.940;6.782;2022-08-19T02:42:40;89.17;;;85.03;;
11431;SDS011;5772;50.940;6.782;2022-08-19T02:45:05;76.67;;;72.77;;
11431;SDS011;5772;50.940;6.782;2022-08-19T02:47:31;81.47;;;77.57;;
11431;SDS011;5772;50.940;6.782;2022-08-19T02:49:58;90.93;;;86.70;;
11431;SDS011;5772;50.940;6.782;2022-08-19T02:52:25;88.27;;;83.93;;
11431;SDS011;5772;50.940;6.782;2022-08-19T02:54:50;93.90;;;89.53;;
11431;SDS011;5772;50.940;6.782;2022-08-19T02:57:15;95.73;;;91.23;;
11431;SDS011;5772;50.940;6.782;2022-08-19T02:59:41;91.00;;;86.40;;
11431;SDS011;5772;50.940;6.782;2022-08-19T03:02:06;92.27;;;87.47;;
11431;SDS011;5772;50.940;6.782;2022-08-19T03:04:32;95.13;;;90.60;;
11431;SDS011;5772;50.940;6.782;2022-08-19T03:06:58;88.97;;;84.77;;
11431;SDS011;5772;50.940;6.782;2022-08-19T03:09:24;92.60;;;88.07;;
11431;SDS011;5772;50.940;6.782;2022-08-19T03:11:49;91.27;;;86.67;;
11431;SDS011;5772;50.940;6.782;2022-08-19T03:14:14;90.03;;;85.60;;
11431;SDS011;5772;50.940;6.782;2022-08-19T03:16:43;90.50;;;86.00;;
11431;SDS011;5772;50.940;6.782;2022-08-19T03:19:11;99.37;;;94.57;;
11431;SDS011;5772;50.940;6.782;2022-08-19T03:21:37;99.33;;;94.10;;
11431;SDS011;5772;50.940;6.782;2022-08-19T03:24:05;99.30;;;94.30;;
11431;SDS011;5772;50.940;6.782;2022-08-19T03:26:32;92.30;;;87.97;;
11431;SDS011;5772;50.940;6.782;2022-08-19T03:29:00;94.87;;;89.97;;
11431;SDS011;5772;50.940;6.782;2022-08-19T03:31:26;90.33;;;85.80;;
11431;SDS011;5772;50.940;6.782;2022-08-19T03:33:52;103.73;;;98.93;;
11431;SDS011;5772;50.940;6.782;2022-08-19T03:36:18;99.27;;;94.20;;
11431;SDS011;5772;50.940;6.782;2022-08-19T03:38:46;90.77;;;86.43;;
11431;SDS011;5772;50.940;6.782;2022-08-19T03:41:15;88.57;;;84.00;;
11431;SDS011;5772;50.940;6.782;2022-08-19T03:43:42;88.57;;;84.17;;
11431;SDS011;5772;50.940;6.782;2022-08-19T03:46:10;70.10;;;66.17;;
11431;SDS011;5772;50.940;6.782;2022-08-19T03:48:37;72.00;;;67.87;;
11431;SDS011;5772;50.940;6.782;2022-08-19T03:51:03;59.53;;;56.10;;
11431;SDS011;5772;50.940;6.782;2022-08-19T03:53:29;64.53;;;60.83;;
11431;SDS011;5772;50.940;6.782;2022-08-19T03:55:55;64.23;;;59.83;;
11431;SDS011;5772;50.940;6.782;2022-08-19T03:58:22;75.90;;;70.83;;
11431;SDS011;5772;50.940;6.782;2022-08-19T04:00:48;77.87;;;73.03;;
11431;SDS011;5772;50.940;6.782;2022-08-19T04:03:14;85.60;;;80.03;;
11431;SDS011;5772;50.940;6.782;2022-08-19T04:05:39;82.83;;;77.30;;
11431;SDS011;5772;50.940;6.782;2022-08-19T04:08:05;94.77;;;88.73;;
11431;SDS011;5772;50.940;6.782;2022-08-19T04:10:30;108.20;;;101.83;;
11431;SDS011;5772;50.940;6.782;2022-08-19T04:12:56;94.57;;;88.67;;
11431;SDS011;5772;50.940;6.782;2022-08-19T04:15:23;92.10;;;86.27;;
11431;SDS011;5772;50.940;6.782;2022-08-19T04:17:48;74.03;;;69.10;;
11431;SDS011;5772;50.940;6.782;2022-08-19T04:20:13;93.73;;;88.10;;
11431;SDS011;5772;50.940;6.782;2022-08-19T04:22:39;85.07;;;79.73;;
11431;SDS011;5772;50.940;6.782;2022-08-19T04:25:04;88.67;;;83.20;;
11431;SDS011;5772;50.940;6.782;2022-08-19T04:27:30;75.20;;;70.30;;
11431;SDS011;5772;50.940;6.782;2022-08-19T04:29:56;77.80;;;72.67;;
11431;SDS011;5772;50.940;6.782;2022-08-19T04:32:23;81.93;;;76.73;;
11431;SDS011;5772;50.940;6.782;2022-08-19T04:34:48;84.60;;;79.40;;
11431;SDS011;5772;50.940;6.782;2022-08-19T04:37:14;76.10;;;70.57;;
11431;SDS011;5772;50.940;6.782;2022-08-19T04:39:39;75.27;;;70.17;;
11431;SDS011;5772;50.940;6.782;2022-08-19T04:42:04;73.57;;;69.07;;
11431;SDS011;5772;50.940;6.782;2022-08-19T04:44:30;80.27;;;74.97;;
11431;SDS011;5772;50.940;6.782;2022-08-19T04:46:56;79.73;;;74.03;;
11431;SDS011;5772;50.940;6.782;2022-08-19T04:49:23;78.30;;;72.87;;
11431;SDS011;5772;50.940;6.782;2022-08-19T04:51:49;71.90;;;67.27;;
11431;SDS011;5772;50.940;6.782;2022-08-19T04:54:15;65.23;;;60.37;;
11431;SDS011;5772;50.940;6.782;2022-08-19T04:56:41;63.47;;;58.67;;
11431;SDS011;5772;50.940;6.782;2022-08-19T04:59:07;79.83;;;72.97;;
11431;SDS011;5772;50.940;6.782;2022-08-19T05:01:32;67.67;;;62.70;;
11431;SDS011;5772;50.940;6.782;2022-08-19T05:03:58;65.30;;;60.40;;
11431;SDS011;5772;50.940;6.782;2022-08-19T05:06:26;67.17;;;62.33;;
11431;SDS011;5772;50.940;6.782;2022-08-19T05:08:52;66.70;;;61.90;;
11431;SDS011;5772;50.940;6.782;2022-08-19T05:11:18;63.23;;;58.73;;
11431;SDS011;5772;50.940;6.782;2022-08-19T05:13:46;62.23;;;57.60;;
11431;SDS011;5772;50.940;6.782;2022-08-19T05:16:12;68.17;;;63.43;;
11431;SDS011;5772;50.940;6.782;2022-08-19T05:18:38;61.57;;;57.33;;
11431;SDS011;5772;50.940;6.782;2022-08-19T05:21:05;64.50;;;60.10;;
11431;SDS011;5772;50.940;6.782;2022-08-19T05:23:32;60.80;;;56.57;;
11431;SDS011;5772;50.940;6.782;2022-08-19T05:25:58;60.20;;;55.33;;
11431;SDS011;5772;50.940;6.782;2022-08-19T05:28:23;61.67;;;57.07;;
11431;SDS011;5772;50.940;6.782;2022-08-19T05:30:49;62.77;;;58.47;;
11431;SDS011;5772;50.940;6.782;2022-08-19T05:33:14;57.97;;;53.67;;
11431;SDS011;5772;50.940;6.782;2022-08-19T05:35:40;63.60;;;59.07;;
11431;SDS011;5772;50.940;6.782;2022-08-19T05:38:05;64.10;;;59.33;;
11431;SDS011;5772;50.940;6.782;2022-08-19T05:40:32;62.33;;;57.53;;
11431;SDS011;5772;50.940;6.782;2022-08-19T05:42:58;68.13;;;63.47;;
11431;SDS011;5772;50.940;6.782;2022-08-19T05:45:24;63.47;;;59.30;;
11431;SDS011;5772;50.940;6.782;2022-08-19T05:47:49;68.60;;;63.97;;
11431;SDS011;5772;50.940;6.782;2022-08-19T05:50:15;75.87;;;70.67;;
11431;SDS011;5772;50.940;6.782;2022-08-19T05:52:40;67.77;;;62.93;;
11431;SDS011;5772;50.940;6.782;2022-08-19T05:55:06;75.30;;;70.80;;
11431;SDS011;5772;50.940;6.782;2022-08-19T05:57:33;73.13;;;67.97;;
11431;SDS011;5772;50.940;6.782;2022-08-19T05:59:58;79.20;;;74.20;;
11431;SDS011;5772;50.940;6.782;2022-08-19T06:02:24;78.50;;;73.03;;
11431;SDS011;5772;50.940;6.782;2022-08-19T06:04:49;86.80;;;81.63;;
11431;SDS011;5772;50.940;6.782;2022-08-19T06:07:15;104.60;;;99.03;;
11431;SDS011;5772;50.940;6.782;2022-08-19T06:09:40;127.53;;;120.50;;
11431;SDS011;5772;50.940;6.782;2022-08-19T06:12:06;135.13;;;127.80;;
11431;SDS011;5772;50.940;6.782;2022-08-19T06:14:34;129.97;;;123.10;;
11431;SDS011;5772;50.940;6.782;2022-08-19T06:16:59;147.47;;;139.73;;
11431;SDS011;5772;50.940;6.782;2022-08-19T06:19:25;148.00;;;139.97;;
11431;SDS011;5772;50.940;6.782;2022-08-19T06:21:51;135.70;;;128.67;;
11431;SDS011;5772;50.940;6.782;2022-08-19T06:24:17;102.03;;;95.93;;
11431;SDS011;5772;50.940;6.782;2022-08-19T06:26:46;55.27;;;50.80;;
11431;SDS011;5772;50.940;6.782;2022-08-19T06:29:13;50.70;;;47.13;;
11431;SDS011;5772;50.940;6.782;2022-08-19T06:31:42;99.43;;;93.53;;
11431;SDS011;5772;50.940;6.782;2022-08-19T06:34:08;114.13;;;107.87;;
11431;SDS011;5772;50.940;6.782;2022-08-19T06:36:34;121.67;;;115.27;;
11431;SDS011;5772;50.940;6.782;2022-08-19T06:39:03;100.37;;;94.33;;
11431;SDS011;5772;50.940;6.782;2022-08-19T06:41:30;88.77;;;83.40;;
11431;SDS011;5772;50.940;6.782;2022-08-19T06:43:56;84.90;;;79.77;;
11431;SDS011;5772;50.940;6.782;2022-08-19T06:46:22;86.33;;;81.03;;
11431;SDS011;5772;50.940;6.782;2022-08-19T06:48:49;86.43;;;81.13;;
11431;SDS011;5772;50.940;6.782;2022-08-19T06:51:15;86.57;;;80.93;;
11431;SDS011;5772;50.940;6.782;2022-08-19T06:53:41;79.97;;;74.70;;
11431;SDS011;5772;50.940;6.782;2022-08-19T06:56:07;72.93;;;68.30;;
11431;SDS011;5772;50.940;6.782;2022-08-19T06:58:32;87.70;;;82.47;;
11431;SDS011;5772;50.940;6.782;2022-08-19T07:00:58;78.73;;;73.50;;
11431;SDS011;5772;50.940;6.782;2022-08-19T07:03:24;76.03;;;71.07;;
11431;SDS011;5772;50.940;6.782;2022-08-19T07:05:51;74.33;;;69.00;;
11431;SDS011;5772;50.940;6.782;2022-08-19T07:08:16;81.27;;;75.63;;
11431;SDS011;5772;50.940;6.782;2022-08-19T07:10:43;80.37;;;75.47;;
11431;SDS011;5772;50.940;6.782;2022-08-19T07:13:08;86.63;;;81.00;;
11431;SDS011;5772;50.940;6.782;2022-08-19T07:15:35;79.07;;;73.80;;
11431;SDS011;5772;50.940;6.782;2022-08-19T07:18:01;80.77;;;75.57;;
11431;SDS011;5772;50.940;6.782;2022-08-19T07:20:26;75.70;;;70.57;;
11431;SDS011;5772;50.940;6.782;2022-08-19T07:22:53;88.20;;;82.23;;
11431;SDS011;5772;50.940;6.782;2022-08-19T07:25:18;95.00;;;88.97;;
11431;SDS011;5772;50.940;6.782;2022-08-19T07:27:44;105.90;;;99.07;;
11431;SDS011;5772;50.940;6.782;2022-08-19T07:30:09;91.87;;;86.43;;
11431;SDS011;5772;50.940;6.782;2022-08-19T07:32:35;68.17;;;63.83;;
11431;SDS011;5772;50.940;6.782;2022-08-19T07:35:01;80.40;;;74.80;;
11431;SDS011;5772;50.940;6.782;2022-08-19T07:37:26;82.43;;;77.03;;
11431;SDS011;5772;50.940;6.782;2022-08-19T07:39:53;71.37;;;66.47;;
11431;SDS011;5772;50.940;6.782;2022-08-19T07:42:18;75.97;;;70.00;;
11431;SDS011;5772;50.940;6.782;2022-08-19T07:44:44;66.77;;;62.10;;
11431;SDS011;5772;50.940;6.782;2022-08-19T07:47:09;68.13;;;63.33;;
11431;SDS011;5772;50.940;6.782;2022-08-19T07:49:34;99.13;;;92.90;;
11431;SDS011;5772;50.940;6.782;2022-08-19T07:52:01;108.10;;;102.07;;
11431;SDS011;5772;50.940;6.782;2022-08-19T07:54:29;113.27;;;106.33;;
11431;SDS011;5772;50.940;6.782;2022-08-19T07:56:57;112.03;;;105.60;;
11431;SDS011;5772;50.940;6.782;2022-08-19T07:59:23;118.53;;;111.77;;
11431;SDS011;5772;50.940;6.782;2022-08-19T08:01:49;148.85;;;140.52;;
11431;SDS011;5772;50.940;6.782;2022-08-19T08:04:14;113.50;;;106.65;;
11431;SDS011;5772;50.940;6.782;2022-08-19T08:06:39;102.93;;;95.82;;
11431;SDS011;5772;50.940;6.782;2022-08-19T08:09:05;103.35;;;96.57;;
11431;SDS011;5772;50.940;6.782;2022-08-19T08:11:31;164.30;;;155.90;;
11431;SDS011;5772;50.940;6.782;2022-08-19T08:13:58;223.85;;;212.35;;
11431;SDS011;5772;50.940;6.782;2022-08-19T08:16:23;137.20;;;129.70;;
11431;SDS011;5772;50.940;6.782;2022-08-19T08:18:49;105.10;;;99.18;;
11431;SDS011;5772;50.940;6.782;2022-08-19T08:21:14;73.10;;;67.20;;
11431;SDS011;5772;50.940;6.782;2022-08-19T08:23:39;85.15;;;79.43;;
11431;SDS011;5772;50.940;6.782;2022-08-19T08:26:05;100.43;;;94.03;;
11431;SDS011;5772;50.940;6.782;2022-08-19T08:28:30;105.20;;;98.82;;
11431;SDS011;5772;50.940;6.782;2022-08-19T08:30:58;121.53;;;113.90;;
11431;SDS011;5772;50.940;6.782;2022-08-19T08:33:25;118.93;;;112.18;;
11431;SDS011;5772;50.940;6.782;2022-08-19T08:35:52;145.98;;;137.88;;
11431;SDS011;5772;50.940;6.782;2022-08-19T08:38:17;78.32;;;73.00;;
11431;SDS011;5772;50.940;6.782;2022-08-19T08:40:44;51.15;;;47.13;;
11431;SDS011;5772;50.940;6.782;2022-08-19T08:43:13;46.45;;;42.58;;
11431;SDS011;5772;50.940;6.782;2022-08-19T08:45:47;50.00;;;45.63;;
11431;SDS011;5772;50.940;6.782;2022-08-19T08:48:32;52.90;;;48.60;;
11431;SDS011;5772;50.940;6.782;2022-08-19T08:51:03;52.92;;;48.65;;
11431;SDS011;5772;50.940;6.782;2022-08-19T08:53:30;63.80;;;59.20;;
11431;SDS011;5772;50.940;6.782;2022-08-19T08:55:56;76.18;;;71.05;;
11431;SDS011;5772;50.940;6.782;2022-08-19T08:58:24;79.78;;;75.05;;
11431;SDS011;5772;50.940;6.782;2022-08-19T09:00:52;109.43;;;103.60;;
11431;SDS011;5772;50.940;6.782;2022-08-19T09:03:19;103.70;;;97.53;;
11431;SDS011;5772;50.940;6.782;2022-08-19T09:05:49;103.18;;;96.75;;
11431;SDS011;5772;50.940;6.782;2022-08-19T09:08:22;110.10;;;104.18;;
11431;SDS011;5772;50.940;6.782;2022-08-19T09:10:56;77.40;;;72.78;;
11431;SDS011;5772;50.940;6.782;2022-08-19T09:13:23;122.47;;;116.35;;
11431;SDS011;5772;50.940;6.782;2022-08-19T09:15:56;68.70;;;64.72;;
11431;SDS011;5772;50.940;6.782;2022-08-19T09:18:23;51.03;;;47.42;;
11431;SDS011;5772;50.940;6.782;2022-08-19T09:20:50;62.10;;;58.17;;
11431;SDS011;5772;50.940;6.782;2022-08-19T09:23:15;55.03;;;51.10;;
11431;SDS011;5772;50.940;6.782;2022-08-19T09:25:41;47.42;;;44.22;;
11431;SDS011;5772;50.940;6.782;2022-08-19T09:28:06;46.67;;;43.38;;
11431;SDS011;5772;50.940;6.782;2022-08-19T09:30:33;48.33;;;45.28;;
11431;SDS011;5772;50.940;6.782;2022-08-19T09:33:00;46.67;;;43.78;;
11431;SDS011;5772;50.940;6.782;2022-08-19T09:35:26;52.45;;;49.45;;
11431;SDS011;5772;50.940;6.782;2022-08-19T09:37:54;43.72;;;41.10;;
11431;SDS011;5772;50.940;6.782;2022-08-19T09:40:20;51.28;;;47.83;;
11431;SDS011;5772;50.940;6.782;2022-08-19T09:42:46;51.13;;;48.33;;
11431;SDS011;5772;50.940;6.782;2022-08-19T09:45:12;55.45;;;52.25;;
11431;SDS011;5772;50.940;6.782;2022-08-19T09:47:37;53.63;;;50.53;;
11431;SDS011;5772;50.940;6.782;2022-08-19T09:50:03;53.53;;;50.80;;
11431;SDS011;5772;50.940;6.782;2022-08-19T09:52:30;39.92;;;37.83;;
11431;SDS011;5772;50.940;6.782;2022-08-19T09:54:56;39.20;;;37.00;;
11431;SDS011;5772;50.940;6.782;2022-08-19T09:57:22;49.58;;;46.70;;
11431;SDS011;5772;50.940;6.782;2022-08-19T09:59:47;44.15;;;41.42;;
11431;SDS011;5772;50.940;6.782;2022-08-19T10:02:13;34.97;;;32.90;;
11431;SDS011;5772;50.940;6.782;2022-08-19T10:04:38;34.95;;;33.15;;
11431;SDS011;5772;50.940;6.782;2022-08-19T10:07:03;36.53;;;34.65;;
11431;SDS011;5772;50.940;6.782;2022-08-19T10:09:29;43.17;;;40.95;;
11431;SDS011;5772;50.940;6.782;2022-08-19T10:11:55;38.20;;;35.80;;
11431;SDS011;5772;50.940;6.782;2022-08-19T10:14:21;35.25;;;33.15;;
11431;SDS011;5772;50.940;6.782;2022-08-19T10:16:46;36.63;;;34.03;;
11431;SDS011;5772;50.940;6.782;2022-08-19T10:19:12;46.50;;;43.25;;
11431;SDS011;5772;50.940;6.782;2022-08-19T10:21:37;48.05;;;45.30;;
11431;SDS011;5772;50.940;6.782;2022-08-19T10:24:03;49.05;;;46.42;;
11431;SDS011;5772;50.940;6.782;2022-08-19T10:26:31;48.58;;;45.70;;
11431;SDS011;5772;50.940;6.782;2022-08-19T10:28:59;47.45;;;43.88;;
11431;SDS011;5772;50.940;6.782;2022-08-19T10:31:25;47.88;;;44.85;;
11431;SDS011;5772;50.940;6.782;2022-08-19T10:33:52;48.67;;;45.83;;
11431;SDS011;5772;50.940;6.782;2022-08-19T10:36:18;47.50;;;45.00;;
11431;SDS011;5772;50.940;6.782;2022-08-19T10:38:46;43.28;;;40.33;;
11431;SDS011;5772;50.940;6.782;2022-08-19T10:41:14;44.47;;;41.78;;
11431;SDS011;5772;50.940;6.782;2022-08-19T10:43:41;33.65;;;31.13;;
11431;SDS011;5772;50.940;6.782;2022-08-19T10:46:09;27.40;;;25.65;;
11431;SDS011;5772;50.940;6.782;2022-08-19T10:48:36;32.70;;;30.38;;
11431;SDS011;5772;50.940;6.782;2022-08-19T10:51:02;30.23;;;28.73;;
11431;SDS011;5772;50.940;6.782;2022-08-19T10:53:28;23.05;;;21.50;;
11431;SDS011;5772;50.940;6.782;2022-08-19T10:55:54;26.25;;;24.55;;
11431;SDS011;5772;50.940;6.782;2022-08-19T10:58:19;24.15;;;22.58;;
11431;SDS011;5772;50.940;6.782;2022-08-19T11:00:50;25.17;;;23.05;;
11431;SDS011;5772;50.940;6.782;2022-08-19T11:03:18;33.05;;;31.10;;
11431;SDS011;5772;50.940;6.782;2022-08-19T11:05:43;30.42;;;28.63;;
11431;SDS011;5772;50.940;6.782;2022-08-19T11:08:08;30.65;;;28.73;;
11431;SDS011;5772;50.940;6.782;2022-08-19T11:10:34;30.50;;;28.50;;
11431;SDS011;5772;50.940;6.782;2022-08-19T11:12:59;30.13;;;28.02;;
11431;SDS011;5772;50.940;6.782;2022-08-19T11:15:25;30.60;;;28.73;;
11431;SDS011;5772;50.940;6.782;2022-08-19T11:17:51;35.80;;;33.60;;
11431;SDS011;5772;50.940;6.782;2022-08-19T11:20:18;36.53;;;34.45;;
11431;SDS011;5772;50.940;6.782;2022-08-19T11:22:43;34.90;;;32.92;;
11431;SDS011;5772;50.940;6.782;2022-08-19T11:25:10;35.58;;;33.33;;
11431;SDS011;5772;50.940;6.782;2022-08-19T11:27:37;36.58;;;34.22;;
11431;SDS011;5772;50.940;6.782;2022-08-19T11:30:04;36.97;;;34.78;;
11431;SDS011;5772;50.940;6.782;2022-08-19T11:32:30;33.00;;;31.20;;
11431;SDS011;5772;50.940;6.782;2022-08-19T11:34:56;32.72;;;30.63;;
11431;SDS011;5772;50.940;6.782;2022-08-19T11:37:23;28.45;;;26.67;;
11431;SDS011;5772;50.940;6.782;2022-08-19T11:39:48;32.50;;;30.40;;
11431;SDS011;5772;50.940;6.782;2022-08-19T11:42:13;31.08;;;29.17;;
11431;SDS011;5772;50.940;6.782;2022-08-19T11:44:39;26.95;;;25.45;;
11431;SDS011;5772;50.940;6.782;2022-08-19T11:47:04;27.38;;;25.85;;
11431;SDS011;5772;50.940;6.782;2022-08-19T11:49:30;23.50;;;21.90;;
11431;SDS011;5772;50.940;6.782;2022-08-19T11:51:55;25.38;;;23.95;;
11431;SDS011;5772;50.940;6.782;2022-08-19T11:54:22;20.30;;;18.98;;
11431;SDS011;5772;50.940;6.782;2022-08-19T11:56:47;21.08;;;19.40;;
11431;SDS011;5772;50.940;6.782;2022-08-19T11:59:13;21.70;;;20.05;;
11431;SDS011;5772;50.940;6.782;2022-08-19T12:01:39;20.92;;;19.52;;
11431;SDS011;5772;50.940;6.782;2022-08-19T12:04:04;23.30;;;21.73;;
11431;SDS011;5772;50.940;6.782;2022-08-19T12:06:31;21.67;;;20.05;;
11431;SDS011;5772;50.940;6.782;2022-08-19T12:08:58;23.08;;;21.63;;
11431;SDS011;5772;50.940;6.782;2022-08-19T12:11:26;23.80;;;22.15;;
11431;SDS011;5772;50.940;6.782;2022-08-19T12:21:30;19.98;;;18.83;;
11431;SDS011;5772;50.940;6.782;2022-08-19T12:30:12;19.80;;;18.38;;
11431;SDS011;5772;50.940;6.782;2022-08-19T12:32:38;19.92;;;18.58;;
11431;SDS011;5772;50.940;6.782;2022-08-19T12:35:04;19.20;;;17.52;;
11431;SDS011;5772;50.940;6.782;2022-08-19T12:37:30;17.60;;;16.52;;
11431;SDS011;5772;50.940;6.782;2022-08-19T12:39:55;17.92;;;16.63;;
11431;SDS011;5772;50.940;6.782;2022-08-19T12:42:21;17.52;;;16.42;;
11431;SDS011;5772;50.940;6.782;2022-08-19T12:44:46;16.95;;;15.88;;
11431;SDS011;5772;50.940;6.782;2022-08-19T12:47:13;20.20;;;19.10;;
11431;SDS011;5772;50.940;6.782;2022-08-19T12:49:39;18.10;;;17.02;;
11431;SDS011;5772;50.940;6.782;2022-08-19T12:52:05;16.85;;;15.85;;
11431;SDS011;5772;50.940;6.782;2022-08-19T12:54:30;15.90;;;14.90;;
11431;SDS011;5772;50.940;6.782;2022-08-19T12:56:56;19.48;;;18.15;;
11431;SDS011;5772;50.940;6.782;2022-08-19T12:59:21;24.35;;;22.83;;
11431;SDS011;5772;50.940;6.782;2022-08-19T13:04:44;25.63;;;24.25;;
11431;SDS011;5772;50.940;6.782;2022-08-19T13:07:21;26.95;;;25.45;;
11431;SDS011;5772;50.940;6.782;2022-08-19T13:09:46;28.38;;;26.95;;
11431;SDS011;5772;50.940;6.782;2022-08-19T13:12:12;23.80;;;22.48;;
11431;SDS011;5772;50.940;6.782;2022-08-19T13:14:37;22.27;;;21.08;;
11431;SDS011;5772;50.940;6.782;2022-08-19T13:17:02;24.95;;;23.55;;
11431;SDS011;5772;50.940;6.782;2022-08-19T13:19:29;23.77;;;22.02;;
11431;SDS011;5772;50.940;6.782;2022-08-19T13:21:55;18.17;;;16.98;;
11431;SDS011;5772;50.940;6.782;2022-08-19T13:24:20;19.27;;;17.95;;
11431;SDS011;5772;50.940;6.782;2022-08-19T13:26:45;19.75;;;18.73;;
11431;SDS011;5772;50.940;6.782;2022-08-19T13:29:11;19.70;;;18.42;;
11431;SDS011;5772;50.940;6.782;2022-08-19T13:31:39;20.38;;;19.05;;
11431;SDS011;5772;50.940;6.782;2022-08-19T13:34:05;17.42;;;16.23;;
11431;SDS011;5772;50.940;6.782;2022-08-19T13:36:32;17.65;;;16.55;;
11431;SDS011;5772;50.940;6.782;2022-08-19T13:38:57;17.40;;;16.30;;
11431;SDS011;5772;50.940;6.782;2022-08-19T13:41:23;16.38;;;15.38;;
11431;SDS011;5772;50.940;6.782;2022-08-19T13:43:48;17.83;;;16.58;;
11431;SDS011;5772;50.940;6.782;2022-08-19T13:46:14;17.48;;;16.23;;
11431;SDS011;5772;50.940;6.782;2022-08-19T13:48:39;17.80;;;16.90;;
11431;SDS011;5772;50.940;6.782;2022-08-19T13:51:05;17.67;;;16.65;;
11431;SDS011;5772;50.940;6.782;2022-08-19T13:53:31;17.08;;;16.05;;
11431;SDS011;5772;50.940;6.782;2022-08-19T13:55:57;20.08;;;18.88;;
11431;SDS011;5772;50.940;6.782;2022-08-19T13:58:22;16.52;;;15.50;;
11431;SDS011;5772;50.940;6.782;2022-08-19T14:00:48;17.40;;;16.40;;
11431;SDS011;5772;50.940;6.782;2022-08-19T14:03:13;17.17;;;15.93;;
11431;SDS011;5772;50.940;6.782;2022-08-19T14:05:39;16.25;;;15.45;;
11431;SDS011;5772;50.940;6.782;2022-08-19T14:08:04;16.50;;;15.57;;
11431;SDS011;5772;50.940;6.782;2022-08-19T14:10:31;17.70;;;16.42;;
11431;SDS011;5772;50.940;6.782;2022-08-19T14:12:58;17.70;;;16.60;;
11431;SDS011;5772;50.940;6.782;2022-08-19T14:15:25;16.67;;;15.57;;
11431;SDS011;5772;50.940;6.782;2022-08-19T14:17:51;17.25;;;16.35;;
11431;SDS011;5772;50.940;6.782;2022-08-19T14:20:17;17.75;;;16.75;;
11431;SDS011;5772;50.940;6.782;2022-08-19T14:22:43;16.77;;;15.55;;
11431;SDS011;5772;50.940;6.782;2022-08-19T14:25:10;15.98;;;15.18;;
11431;SDS011;5772;50.940;6.782;2022-08-19T14:27:39;14.55;;;13.77;;
11431;SDS011;5772;50.940;6.782;2022-08-19T14:30:05;15.40;;;14.68;;
11431;SDS011;5772;50.940;6.782;2022-08-19T14:32:32;15.93;;;15.18;;
11431;SDS011;5772;50.940;6.782;2022-08-19T14:34:58;16.83;;;16.02;;
11431;SDS011;5772;50.940;6.782;2022-08-19T14:37:23;15.15;;;14.35;;
11431;SDS011;5772;50.940;6.782;2022-08-19T14:39:49;16.50;;;15.65;;
11431;SDS011;5772;50.940;6.782;2022-08-19T14:42:14;16.67;;;15.77;;
11431;SDS011;5772;50.940;6.782;2022-08-19T14:44:41;16.33;;;15.40;;